createdAt,value
2022-08-14T00:02:01.637Z,22.20
2022-08-14T00:04:42.362Z,22.20
2022-08-14T00:07:14.192Z,22.20
2022-08-14T00:09:56.259Z,22.30
2022-08-14T00:12:39.604Z,22.40
2022-08-14T00:15:44.315Z,22.40
2022-08-14T00:18:30.393Z,22.40
2022-08-14T00:21:10.946Z,22.30
2022-08-14T00:23:38.645Z,22.50
2022-08-14T00:26:21.471Z,22.50
2022-08-14T00:28:49.343Z,22.70
2022-08-14T00:31:16.662Z,22.70
2022-08-14T00:33:52.330Z,22.70
2022-08-14T00:36:37.589Z,22.70
2022-08-14T00:39:18.192Z,22.70
2022-08-14T00:41:47.312Z,22.70
2022-08-14T00:44:31.895Z,22.60
2022-08-14T00:47:03.350Z,22.60
2022-08-14T00:49:36.394Z,22.50
2022-08-14T00:52:18.247Z,22.40
2022-08-14T00:54:52.808Z,22.50
2022-08-14T00:57:29.913Z,22.40
2022-08-14T01:00:00.427Z,22.40
2022-08-14T01:02:31.672Z,22.50
2022-08-14T01:05:00.850Z,22.50
2022-08-14T01:07:29.772Z,22.50
2022-08-14T01:10:06.641Z,22.50
2022-08-14T01:12:33.858Z,22.50
2022-08-14T01:15:09.371Z,22.50
2022-08-14T01:17:55.440Z,22.40
2022-08-14T01:20:41.363Z,22.40
2022-08-14T01:23:16.145Z,22.50
2022-08-14T01:25:48.975Z,22.40
2022-08-14T01:28:46.271Z,22.40
2022-08-14T01:31:14.495Z,22.40
2022-08-14T01:33:59.998Z,22.30
2022-08-14T01:36:37.995Z,22.30
2022-08-14T01:39:13.293Z,22.20
2022-08-14T01:41:43.654Z,22.20
2022-08-14T01:44:31.371Z,22.30
2022-08-14T01:47:21.470Z,22.30
2022-08-14T01:49:59.813Z,22.30
2022-08-14T01:52:59.834Z,22.30
2022-08-14T01:55:31.615Z,22.30
2022-08-14T01:58:18.134Z,22.30
2022-08-14T02:00:53.961Z,22.30
2022-08-14T02:03:23.319Z,22.30
2022-08-14T02:05:50.332Z,22.20
2022-08-14T02:08:22.217Z,22.10
2022-08-14T02:11:22.216Z,22.10
2022-08-14T02:13:56.434Z,22.00
2022-08-14T02:16:26.880Z,22.00
2022-08-14T02:18:58.094Z,21.90
2022-08-14T02:21:27.510Z,21.80
2022-08-14T02:23:57.213Z,21.70
2022-08-14T02:26:30.686Z,21.70
2022-08-14T02:29:08.462Z,21.60
2022-08-14T02:31:43.950Z,21.50
2022-08-14T02:34:26.350Z,21.40
2022-08-14T02:37:09.208Z,21.40
2022-08-14T02:39:45.705Z,21.30
2022-08-14T02:42:23.595Z,21.20
2022-08-14T02:45:06.120Z,21.10
2022-08-14T02:47:34.072Z,21.10
2022-08-14T02:50:06.368Z,21.00
2022-08-14T02:52:57.486Z,20.90
2022-08-14T02:55:22.944Z,20.90
2022-08-14T02:57:58.237Z,20.80
2022-08-14T03:00:35.101Z,20.80
2022-08-14T03:03:08.008Z,20.70
2022-08-14T03:05:37.182Z,20.70
2022-08-14T03:08:15.811Z,20.60
2022-08-14T03:10:48.896Z,20.70
2022-08-14T03:13:19.775Z,20.60
2022-08-14T03:15:55.035Z,20.50
2022-08-14T03:18:31.754Z,20.50
2022-08-14T03:21:07.635Z,20.50
2022-08-14T03:23:38.470Z,20.40
2022-08-14T03:26:13.230Z,20.40
2022-08-14T03:28:49.000Z,20.40
2022-08-14T03:31:25.867Z,20.30
2022-08-14T03:33:54.267Z,20.20
2022-08-14T03:37:37.633Z,20.30
2022-08-14T03:39:21.152Z,20.20
2022-08-14T03:41:59.789Z,20.20
2022-08-14T03:45:33.351Z,20.20
2022-08-14T03:47:15.667Z,20.20
2022-08-14T03:49:46.094Z,20.10
2022-08-14T03:52:38.596Z,20.00
2022-08-14T03:55:07.507Z,20.00
2022-08-14T03:57:37.215Z,20.00
2022-08-14T04:00:13.936Z,20.00
2022-08-14T04:02:58.472Z,19.90
2022-08-14T04:05:25.431Z,20.00
2022-08-14T04:08:08.387Z,19.90
2022-08-14T04:10:39.040Z,19.90
2022-08-14T04:13:06.445Z,19.90
2022-08-14T04:15:40.939Z,19.80
2022-08-14T04:18:22.282Z,19.80
2022-08-14T04:20:54.568Z,19.80
2022-08-14T04:23:29.533Z,19.70
2022-08-14T04:26:04.568Z,19.70
2022-08-14T04:29:07.188Z,19.80
2022-08-14T04:32:59.062Z,19.80
2022-08-14T04:34:20.879Z,19.90
2022-08-14T04:37:12.586Z,19.90
2022-08-14T04:39:58.821Z,19.80
2022-08-14T04:42:47.582Z,19.70
2022-08-14T04:45:29.680Z,19.80
2022-08-14T04:48:43.239Z,19.80
2022-08-14T04:51:05.828Z,19.80
2022-08-14T04:53:35.225Z,19.90
2022-08-14T04:56:06.076Z,20.00
2022-08-14T04:59:02.135Z,20.00
2022-08-14T05:01:39.688Z,20.00
2022-08-14T05:04:08.706Z,20.10
2022-08-14T05:06:41.560Z,20.10
2022-08-14T05:09:14.066Z,20.10
2022-08-14T05:11:42.467Z,20.10
2022-08-14T05:14:42.112Z,20.20
2022-08-14T05:17:01.459Z,20.30
2022-08-14T05:19:32.111Z,20.40
2022-08-14T05:22:17.373Z,20.50
2022-08-14T05:24:50.676Z,20.60
2022-08-14T05:27:22.708Z,20.60
2022-08-14T05:29:55.126Z,20.70
2022-08-14T05:32:27.975Z,20.70
2022-08-14T05:34:58.753Z,20.80
2022-08-14T05:37:28.709Z,20.80
2022-08-14T05:39:58.626Z,20.90
2022-08-14T05:42:29.187Z,21.00
2022-08-14T05:44:59.567Z,21.10
2022-08-14T05:47:28.720Z,21.20
2022-08-14T05:50:01.768Z,21.30
2022-08-14T05:52:48.957Z,21.50
2022-08-14T05:55:22.231Z,21.50
2022-08-14T05:57:54.663Z,21.60
2022-08-14T06:00:36.842Z,21.60
2022-08-14T06:03:10.328Z,21.80
2022-08-14T06:05:39.149Z,22.00
2022-08-14T06:08:35.431Z,22.20
2022-08-14T06:11:07.774Z,22.70
2022-08-14T06:13:44.463Z,23.10
2022-08-14T06:16:17.685Z,23.60
2022-08-14T06:18:48.615Z,23.50
2022-08-14T06:21:23.363Z,23.50
2022-08-14T06:23:51.413Z,23.50
2022-08-14T06:26:20.765Z,23.30
2022-08-14T06:28:52.335Z,23.40
2022-08-14T06:31:21.172Z,23.20
2022-08-14T06:35:10.706Z,23.20
2022-08-14T06:36:37.896Z,23.20
2022-08-14T06:39:08.187Z,23.10
2022-08-14T06:41:58.486Z,23.10
2022-08-14T06:44:32.659Z,23.20
2022-08-14T06:47:04.414Z,23.50
2022-08-14T06:49:44.249Z,24.20
2022-08-14T06:52:15.076Z,25.00
2022-08-14T06:54:43.071Z,25.50
2022-08-14T06:57:09.819Z,25.40
2022-08-14T06:59:36.652Z,25.50
2022-08-14T07:02:22.042Z,25.40
2022-08-14T07:05:07.840Z,25.50
2022-08-14T07:07:40.020Z,25.50
2022-08-14T07:10:16.874Z,25.80
2022-08-14T07:13:00.696Z,25.60
2022-08-14T07:15:40.023Z,25.60
2022-08-14T07:18:10.911Z,25.80
2022-08-14T07:20:39.808Z,26.00
2022-08-14T07:23:19.928Z,26.00
2022-08-14T07:25:51.375Z,26.40
2022-08-14T07:28:32.901Z,26.60
2022-08-14T07:31:04.767Z,26.30
2022-08-14T07:33:50.391Z,26.00
2022-08-14T07:36:27.887Z,26.00
2022-08-14T07:39:03.631Z,26.00
2022-08-14T07:41:42.553Z,26.00
2022-08-14T07:44:31.902Z,26.00
2022-08-14T07:46:58.359Z,26.00
2022-08-14T07:49:26.810Z,26.10
2022-08-14T07:51:53.862Z,26.30
2022-08-14T07:54:22.849Z,26.40
2022-08-14T07:56:59.814Z,26.40
2022-08-14T07:59:42.534Z,26.70
2022-08-14T08:02:18.869Z,27.20
2022-08-14T08:04:58.975Z,27.20
2022-08-14T08:07:31.329Z,27.50
2022-08-14T08:10:46.407Z,27.30
2022-08-14T08:13:18.327Z,27.30
2022-08-14T08:15:57.296Z,27.20
2022-08-14T08:18:29.599Z,27.20
2022-08-14T08:21:00.179Z,27.50
2022-08-14T08:23:40.751Z,27.90
2022-08-14T08:26:17.732Z,27.90
2022-08-14T08:28:54.832Z,28.00
2022-08-14T08:31:22.903Z,28.30
2022-08-14T08:33:53.867Z,28.20
2022-08-14T08:36:21.998Z,28.40
2022-08-14T08:39:15.437Z,28.40
2022-08-14T08:41:49.322Z,28.60
2022-08-14T08:44:31.875Z,28.40
2022-08-14T08:47:05.939Z,28.60
2022-08-14T08:49:52.707Z,28.60
2022-08-14T08:52:31.302Z,28.60
2022-08-14T08:55:00.832Z,28.50
2022-08-14T08:57:37.040Z,28.60
2022-08-14T09:00:25.523Z,28.70
2022-08-14T09:03:03.070Z,28.80
2022-08-14T09:05:34.356Z,29.00
2022-08-14T09:08:31.513Z,28.90
2022-08-14T09:11:19.637Z,29.10
2022-08-14T09:13:53.885Z,29.40
2022-08-14T09:16:25.018Z,29.40
2022-08-14T09:18:53.830Z,29.40
2022-08-14T09:21:23.881Z,29.70
2022-08-14T09:24:29.439Z,29.70
2022-08-14T09:26:49.431Z,29.70
2022-08-14T09:29:18.136Z,29.80
2022-08-14T09:31:57.563Z,29.80
2022-08-14T09:35:23.515Z,30.10
2022-08-14T09:38:26.011Z,30.20
2022-08-14T09:41:13.415Z,30.20
2022-08-14T09:44:08.979Z,30.00
2022-08-14T09:46:36.375Z,30.00
2022-08-14T09:49:07.682Z,30.20
2022-08-14T09:51:58.583Z,30.40
2022-08-14T09:54:43.844Z,30.50
2022-08-14T09:57:23.959Z,30.70
2022-08-14T09:59:55.125Z,30.50
2022-08-14T10:02:31.928Z,30.70
2022-08-14T10:05:10.260Z,31.00
2022-08-14T10:07:50.888Z,30.90
2022-08-14T10:10:38.451Z,31.00
2022-08-14T10:13:24.005Z,31.20
2022-08-14T10:15:51.511Z,31.00
2022-08-14T10:18:21.291Z,31.20
2022-08-14T10:21:01.536Z,31.10
2022-08-14T10:23:42.668Z,31.30
2022-08-14T10:26:11.894Z,31.40
2022-08-14T10:29:17.696Z,31.40
2022-08-14T10:31:45.366Z,31.60
2022-08-14T10:34:20.903Z,31.70
2022-08-14T10:37:14.510Z,31.40
2022-08-14T10:40:05.522Z,31.40
2022-08-14T10:42:40.808Z,31.50
2022-08-14T10:45:29.836Z,31.60
2022-08-14T10:48:09.251Z,31.60
2022-08-14T10:50:42.580Z,31.60
2022-08-14T10:53:09.659Z,31.70
2022-08-14T10:55:45.459Z,31.30
2022-08-14T10:58:13.950Z,31.50
2022-08-14T11:00:56.526Z,31.50
2022-08-14T11:03:26.666Z,32.00
2022-08-14T11:06:15.178Z,31.90
2022-08-14T11:08:42.864Z,31.80
2022-08-14T11:11:12.584Z,31.60
2022-08-14T11:13:46.453Z,32.00
2022-08-14T11:16:17.012Z,31.80
2022-08-14T11:18:50.766Z,31.90
2022-08-14T11:21:21.907Z,31.90
2022-08-14T11:23:53.669Z,32.00
2022-08-14T11:26:27.901Z,31.70
2022-08-14T11:29:00.284Z,31.20
2022-08-14T11:31:35.595Z,30.90
2022-08-14T11:34:06.114Z,30.80
2022-08-14T11:37:04.396Z,30.80
2022-08-14T11:39:40.647Z,30.80
2022-08-14T11:42:56.961Z,30.70
2022-08-14T11:45:11.319Z,30.80
2022-08-14T11:48:13.389Z,30.70
2022-08-14T11:50:37.130Z,30.70
2022-08-14T11:53:07.980Z,30.70
2022-08-14T11:55:39.766Z,30.60
2022-08-14T11:58:15.666Z,30.70
2022-08-14T12:00:57.127Z,30.80
2022-08-14T12:03:56.960Z,30.80
2022-08-14T12:06:29.439Z,30.80
2022-08-14T12:09:08.562Z,30.90
2022-08-14T12:11:46.926Z,31.10
2022-08-14T12:14:30.065Z,31.40
2022-08-14T12:17:12.576Z,31.30
2022-08-14T12:20:06.609Z,31.10
2022-08-14T12:22:45.237Z,31.10
2022-08-14T12:25:24.979Z,31.50
2022-08-14T12:27:59.062Z,31.90
2022-08-14T12:30:40.073Z,31.70
2022-08-14T12:33:33.874Z,31.70
2022-08-14T12:36:09.841Z,31.70
2022-08-14T12:38:44.946Z,31.60
2022-08-14T12:41:22.122Z,31.60
2022-08-14T12:43:56.804Z,31.40
2022-08-14T12:46:40.540Z,31.30
2022-08-14T12:49:16.971Z,31.10
2022-08-14T12:51:59.393Z,31.10
2022-08-14T12:54:29.138Z,31.10
2022-08-14T12:57:19.426Z,30.90
2022-08-14T12:59:49.453Z,30.80
2022-08-14T13:02:29.803Z,30.90
2022-08-14T13:04:57.832Z,30.70
2022-08-14T13:07:32.685Z,30.70
2022-08-14T13:10:00.757Z,30.70
2022-08-14T13:13:13.151Z,30.70
2022-08-14T13:15:40.633Z,30.70
2022-08-14T13:18:10.437Z,30.80
2022-08-14T13:20:44.169Z,30.70
2022-08-14T13:23:19.217Z,30.80
2022-08-14T13:25:58.790Z,30.80
2022-08-14T13:28:32.618Z,30.70
2022-08-14T13:31:04.434Z,30.70
2022-08-14T13:33:40.517Z,30.70
2022-08-14T13:36:09.799Z,30.80
2022-08-14T13:38:37.442Z,31.10
2022-08-14T13:41:06.055Z,31.10
2022-08-14T13:43:36.816Z,31.10
2022-08-14T13:46:25.693Z,31.00
2022-08-14T13:48:54.740Z,31.00
2022-08-14T13:51:26.131Z,30.90
2022-08-14T13:54:10.256Z,30.80
2022-08-14T13:56:42.131Z,30.80
2022-08-14T13:59:10.500Z,30.80
2022-08-14T14:01:43.823Z,30.80
2022-08-14T14:04:24.092Z,30.80
2022-08-14T14:06:52.038Z,30.90
2022-08-14T14:09:32.583Z,30.90
2022-08-14T14:12:49.134Z,30.80
2022-08-14T14:14:56.360Z,30.90
2022-08-14T14:17:25.114Z,31.00
2022-08-14T14:19:57.749Z,31.10
2022-08-14T14:22:35.694Z,31.10
2022-08-14T14:25:19.405Z,31.10
2022-08-14T14:27:53.305Z,31.10
2022-08-14T14:30:53.572Z,31.30
2022-08-14T14:33:42.339Z,31.30
2022-08-14T14:36:02.531Z,31.30
2022-08-14T14:38:34.177Z,31.40
2022-08-14T14:41:03.733Z,31.40
2022-08-14T14:43:36.046Z,31.40
2022-08-14T14:46:09.460Z,31.30
2022-08-14T14:48:46.655Z,31.40
2022-08-14T14:51:21.998Z,31.40
2022-08-14T14:53:49.631Z,31.40
2022-08-14T14:56:49.590Z,31.40
2022-08-14T14:59:04.702Z,31.40
2022-08-14T15:01:36.441Z,31.50
2022-08-14T15:04:07.914Z,31.50
2022-08-14T15:06:48.124Z,31.50
2022-08-14T15:09:17.968Z,31.40
2022-08-14T15:11:47.171Z,31.40
2022-08-14T15:14:55.668Z,31.40
2022-08-14T15:17:02.272Z,31.40
2022-08-14T15:19:29.590Z,31.40
2022-08-14T15:21:57.669Z,31.40
2022-08-14T15:24:26.984Z,31.30
2022-08-14T15:26:58.701Z,31.30
2022-08-14T15:29:27.020Z,31.30
2022-08-14T15:31:54.117Z,31.30
2022-08-14T15:34:43.401Z,31.30
2022-08-14T15:37:12.754Z,31.30
2022-08-14T15:39:41.127Z,31.30
2022-08-14T15:42:14.641Z,31.30
2022-08-14T15:44:58.016Z,31.30
2022-08-14T15:47:32.633Z,31.30
2022-08-14T15:50:04.120Z,31.40
2022-08-14T15:52:35.191Z,31.40
2022-08-14T15:55:15.478Z,31.30
2022-08-14T15:58:02.105Z,31.30
2022-08-14T16:00:58.548Z,31.20
2022-08-14T16:03:35.195Z,31.10
2022-08-14T16:06:15.621Z,31.10
2022-08-14T16:08:50.100Z,31.20
2022-08-14T16:11:18.405Z,31.10
2022-08-14T16:13:47.644Z,31.10
2022-08-14T16:16:50.866Z,31.10
2022-08-14T16:19:11.008Z,31.10
2022-08-14T16:22:02.232Z,31.10
2022-08-14T16:24:32.961Z,31.00
2022-08-14T16:27:01.480Z,31.00
2022-08-14T16:29:35.851Z,31.00
2022-08-14T16:32:32.059Z,31.10
2022-08-14T16:34:54.954Z,31.10
2022-08-14T16:37:30.566Z,31.20
2022-08-14T16:40:00.490Z,31.10
2022-08-14T16:42:39.358Z,31.10
2022-08-14T16:45:28.705Z,31.00
2022-08-14T16:47:56.805Z,31.00
2022-08-14T16:50:40.787Z,31.10
2022-08-14T16:53:10.494Z,31.00
2022-08-14T16:55:53.231Z,31.00
2022-08-14T16:58:27.310Z,31.00
2022-08-14T17:01:22.929Z,31.00
2022-08-14T17:04:04.807Z,30.90
2022-08-14T17:06:57.304Z,30.90
2022-08-14T17:09:32.067Z,30.80
2022-08-14T17:12:09.349Z,30.80
2022-08-14T17:15:10.182Z,30.80
2022-08-14T17:17:44.486Z,30.80
2022-08-14T17:20:39.329Z,30.70
2022-08-14T17:23:10.733Z,30.70
2022-08-14T17:25:38.262Z,30.70
2022-08-14T17:28:51.661Z,30.60
2022-08-14T17:31:08.461Z,30.60
2022-08-14T17:33:40.761Z,30.40
2022-08-14T17:36:22.493Z,30.40
2022-08-14T17:39:19.042Z,30.40
2022-08-14T17:42:03.053Z,30.40
2022-08-14T17:44:45.420Z,30.30
2022-08-14T17:47:18.226Z,30.20
2022-08-14T17:49:51.811Z,30.20
2022-08-14T17:52:35.899Z,30.20
2022-08-14T17:56:03.497Z,30.10
2022-08-14T17:58:02.136Z,30.00
2022-08-14T18:00:51.742Z,30.00
2022-08-14T18:03:51.232Z,29.90
2022-08-14T18:06:38.574Z,29.80
2022-08-14T18:08:58.502Z,29.80
2022-08-14T18:11:26.495Z,29.80
2022-08-14T18:14:32.875Z,29.70
2022-08-14T18:17:02.465Z,29.60
2022-08-14T18:19:32.662Z,29.50
2022-08-14T18:22:05.693Z,29.40
2022-08-14T18:24:52.661Z,29.30
2022-08-14T18:27:23.663Z,29.40
2022-08-14T18:29:56.149Z,29.30
2022-08-14T18:32:27.641Z,29.20
2022-08-14T18:35:46.164Z,29.20
2022-08-14T18:38:45.700Z,29.10
2022-08-14T18:41:37.499Z,29.00
2022-08-14T18:44:10.622Z,29.00
2022-08-14T18:47:14.847Z,28.90
2022-08-14T18:49:57.603Z,28.80
2022-08-14T18:52:37.016Z,28.70
2022-08-14T18:55:21.393Z,28.70
2022-08-14T18:57:58.209Z,28.50
2022-08-14T19:00:33.666Z,28.50
2022-08-14T19:03:04.679Z,28.40
2022-08-14T19:05:49.351Z,28.30
2022-08-14T19:08:28.031Z,28.30
2022-08-14T19:10:59.682Z,28.20
2022-08-14T19:13:44.637Z,28.10
2022-08-14T19:16:23.351Z,28.10
2022-08-14T19:19:00.334Z,28.10
2022-08-14T19:21:40.868Z,28.00
2022-08-14T19:24:29.546Z,27.90
2022-08-14T19:27:26.103Z,27.90
2022-08-14T19:30:20.246Z,27.80
2022-08-14T19:32:57.036Z,27.80
2022-08-14T19:35:48.569Z,27.70
2022-08-14T19:38:44.088Z,27.70
2022-08-14T19:41:23.788Z,27.60
2022-08-14T19:44:14.827Z,27.60
2022-08-14T19:47:01.167Z,27.40
2022-08-14T19:50:08.696Z,27.40
2022-08-14T19:52:37.115Z,27.40
2022-08-14T19:55:20.035Z,27.20
2022-08-14T19:57:52.148Z,27.30
2022-08-14T20:00:29.377Z,27.30
2022-08-14T20:03:12.057Z,27.20
2022-08-14T20:05:45.811Z,27.10
2022-08-14T20:10:58.708Z,27.10
2022-08-14T20:12:00.309Z,27.00
2022-08-14T20:14:20.341Z,27.00
2022-08-14T20:16:54.261Z,27.00
2022-08-14T20:19:31.957Z,26.90
2022-08-14T20:22:35.635Z,26.80
2022-08-14T20:24:54.447Z,26.80
2022-08-14T20:27:33.436Z,26.80
2022-08-14T20:30:33.802Z,26.70
2022-08-14T20:33:11.074Z,26.70
2022-08-14T20:35:48.917Z,26.70
2022-08-14T20:38:30.694Z,26.70
2022-08-14T20:41:06.552Z,26.60
2022-08-14T20:43:56.592Z,26.60
2022-08-14T20:46:39.406Z,26.50
2022-08-14T20:49:16.758Z,26.50
2022-08-14T20:52:00.072Z,26.40
2022-08-14T20:54:36.098Z,26.30
2022-08-14T20:57:11.348Z,26.30
2022-08-14T20:59:45.572Z,26.30
2022-08-14T21:02:46.872Z,26.30
2022-08-14T21:05:34.057Z,26.10
2022-08-14T21:08:09.690Z,26.00
2022-08-14T21:10:44.332Z,26.00
2022-08-14T21:14:08.815Z,26.10
2022-08-14T21:16:34.549Z,26.00
2022-08-14T21:18:59.909Z,26.00
2022-08-14T21:21:41.434Z,25.90
2022-08-14T21:24:39.597Z,25.90
2022-08-14T21:27:12.629Z,25.80
2022-08-14T21:29:53.945Z,25.80
2022-08-14T21:32:50.548Z,25.70
2022-08-14T21:35:24.273Z,25.70
2022-08-14T21:37:52.390Z,25.60
2022-08-14T21:40:41.609Z,25.60
2022-08-14T21:43:21.471Z,25.50
2022-08-14T21:45:56.146Z,25.50
2022-08-14T21:48:32.143Z,25.50
2022-08-14T21:51:53.502Z,25.30
2022-08-14T21:53:59.523Z,25.40
2022-08-14T21:56:38.588Z,25.40
2022-08-14T21:59:17.748Z,25.30
2022-08-14T22:02:01.082Z,25.20
2022-08-14T22:04:40.771Z,25.20
2022-08-14T22:07:17.468Z,25.20
2022-08-14T22:09:54.968Z,25.20
2022-08-14T22:12:57.943Z,25.20
2022-08-14T22:15:12.119Z,25.10
2022-08-14T22:17:44.305Z,25.10
2022-08-14T22:20:20.671Z,25.10
2022-08-14T22:22:48.064Z,25.00
2022-08-14T22:25:22.763Z,25.00
2022-08-14T22:28:01.288Z,25.00
2022-08-14T22:30:28.109Z,24.90
2022-08-14T22:32:58.473Z,24.90
2022-08-14T22:35:28.440Z,24.90
2022-08-14T22:38:36.125Z,24.80
2022-08-14T22:41:03.797Z,24.90
2022-08-14T22:43:35.175Z,24.90
2022-08-14T22:46:06.129Z,24.90
2022-08-14T22:48:41.513Z,24.80
2022-08-14T22:51:08.335Z,24.70
2022-08-14T22:53:35.094Z,24.70
2022-08-14T22:56:02.224Z,24.60
2022-08-14T22:58:35.107Z,24.60
2022-08-14T23:01:10.565Z,24.60
2022-08-14T23:03:42.144Z,24.50
2022-08-14T23:07:02.397Z,24.60
2022-08-14T23:09:34.522Z,24.50
2022-08-14T23:11:47.130Z,24.50
2022-08-14T23:14:24.126Z,24.40
2022-08-14T23:16:57.326Z,24.30
2022-08-14T23:19:34.634Z,24.30
2022-08-14T23:22:06.474Z,24.30
2022-08-14T23:24:34.904Z,24.40
2022-08-14T23:27:09.243Z,24.30
2022-08-14T23:29:37.925Z,24.30
2022-08-14T23:32:06.643Z,24.30
2022-08-14T23:34:48.311Z,24.30
2022-08-14T23:37:19.195Z,24.20
2022-08-14T23:39:53.942Z,24.20
2022-08-14T23:42:22.223Z,24.10
2022-08-14T23:45:08.473Z,24.10
2022-08-14T23:47:51.075Z,24.00
2022-08-14T23:50:34.536Z,24.00
2022-08-14T23:53:28.184Z,23.90
2022-08-14T23:56:13.879Z,23.90
2022-08-14T23:58:42.197Z,23.90
